Time;durP1;ratioP1;P1;durP2;ratioP2;P2;SDS_P1;SDS_P2;PMS_P1;PMS_P2;Temp;Humidity;BMP_temperature;BMP_pressure;BME280_temperature;BME280_humidity;BME280_pressure;Samples;Min_cycle;Max_cycle;Signal;HPM_P1;HPM_P2
2023/07/09 00:01:36;;;;;;;7.85;4.32;;;20.00;99.90;;;;;;5033410;28;20042;-47
2023/07/09 00:04:03;;;;;;;11.35;5.00;;;20.00;99.90;;;;;;5032808;28;20033;-50
2023/07/09 00:06:30;;;;;;;9.35;5.03;;;20.00;99.90;;;;;;5032680;28;20080;-47
2023/07/09 00:08:57;;;;;;;8.73;5.00;;;19.90;99.90;;;;;;5031690;28;20072;-49
2023/07/09 00:11:24;;;;;;;7.57;4.70;;;19.90;99.90;;;;;;5031768;28;20072;-48
2023/07/09 00:13:50;;;;;;;10.13;5.10;;;19.80;99.90;;;;;;5032367;28;20053;-50
2023/07/09 00:16:18;;;;;;;8.70;4.90;;;19.80;99.90;;;;;;5031910;28;20041;-50
2023/07/09 00:18:47;;;;;;;7.90;4.55;;;19.80;99.90;;;;;;5028358;28;20046;-50
2023/07/09 00:21:14;;;;;;;10.10;5.20;;;19.80;99.90;;;;;;5031564;28;20065;-48
2023/07/09 00:23:41;;;;;;;8.93;4.93;;;19.70;99.90;;;;;;5033013;28;20485;-49
2023/07/09 00:26:09;;;;;;;8.60;4.65;;;19.60;99.90;;;;;;5032842;28;20044;-50
2023/07/09 00:28:36;;;;;;;7.53;4.53;;;19.60;99.90;;;;;;5028978;28;20041;-47
2023/07/09 00:31:03;;;;;;;9.35;4.80;;;19.60;99.90;;;;;;5032820;28;20048;-50
2023/07/09 00:33:31;;;;;;;9.18;4.70;;;19.60;99.90;;;;;;5031271;28;20037;-46
2023/07/09 00:35:58;;;;;;;8.52;4.35;;;19.50;99.90;;;;;;5031571;28;20563;-48
2023/07/09 00:38:25;;;;;;;7.47;4.40;;;19.50;99.90;;;;;;5031213;28;20060;-52
2023/07/09 00:40:52;;;;;;;7.90;4.55;;;19.50;99.90;;;;;;5031116;28;20034;-48
2023/07/09 00:43:19;;;;;;;8.45;4.88;;;19.50;99.90;;;;;;5032156;28;20052;-49
2023/07/09 00:45:45;;;;;;;6.72;4.63;;;19.40;99.90;;;;;;5032564;28;20048;-48
2023/07/09 00:48:12;;;;;;;10.07;4.80;;;19.40;99.90;;;;;;5032574;28;20045;-47
2023/07/09 00:50:41;;;;;;;7.35;4.20;;;19.40;99.90;;;;;;5031161;28;20045;-53
2023/07/09 00:53:09;;;;;;;10.52;4.35;;;19.40;99.90;;;;;;5032606;28;20065;-49
2023/07/09 00:55:37;;;;;;;8.82;4.63;;;19.30;99.90;;;;;;5032438;28;20060;-48
2023/07/09 00:58:05;;;;;;;8.07;4.88;;;19.30;99.90;;;;;;5033028;28;20502;-48
2023/07/09 01:00:35;;;;;;;7.72;4.45;;;19.30;99.90;;;;;;5033772;28;20044;-48
2023/07/09 01:03:05;;;;;;;7.90;4.70;;;19.20;99.90;;;;;;5031807;28;20050;-51
2023/07/09 01:05:32;;;;;;;11.05;5.15;;;19.20;99.90;;;;;;5033357;28;20037;-46
2023/07/09 01:07:59;;;;;;;9.38;4.70;;;19.20;99.90;;;;;;5032088;28;20053;-49
2023/07/09 01:10:26;;;;;;;9.27;5.20;;;19.20;99.90;;;;;;5033003;28;20511;-47
2023/07/09 01:12:53;;;;;;;7.72;5.00;;;19.30;99.90;;;;;;5015246;28;20048;-50
2023/07/09 01:15:19;;;;;;;9.20;4.85;;;19.20;99.90;;;;;;5033070;28;20037;-45
2023/07/09 01:17:47;;;;;;;7.13;4.60;;;19.20;99.90;;;;;;5031596;28;20148;-47
2023/07/09 01:20:14;;;;;;;8.85;4.07;;;19.30;99.90;;;;;;5032809;28;20543;-48
2023/07/09 01:22:41;;;;;;;8.55;4.78;;;19.30;99.90;;;;;;5031776;28;20037;-45
2023/07/09 01:25:08;;;;;;;8.07;4.45;;;19.30;99.90;;;;;;5033355;28;20041;-44
2023/07/09 01:27:34;;;;;;;8.77;4.60;;;19.30;99.90;;;;;;5033208;28;20091;-45
2023/07/09 01:30:01;;;;;;;5.82;3.85;;;19.40;99.90;;;;;;5034209;28;20046;-45
2023/07/09 01:32:29;;;;;;;9.80;4.72;;;19.40;99.90;;;;;;5036916;28;20084;-45
2023/07/09 01:34:56;;;;;;;9.45;4.45;;;19.40;99.90;;;;;;5036600;28;20116;-45
2023/07/09 01:37:23;;;;;;;9.07;4.40;;;19.40;99.90;;;;;;5036340;28;20045;-44
2023/07/09 01:39:50;;;;;;;10.20;4.55;;;19.50;99.90;;;;;;5036480;28;20045;-45
2023/07/09 01:42:17;;;;;;;11.38;4.60;;;19.50;99.90;;;;;;5035187;28;20084;-49
2023/07/09 01:44:45;;;;;;;6.95;4.28;;;19.50;99.90;;;;;;5034896;28;20381;-47
2023/07/09 01:47:12;;;;;;;8.38;4.35;;;19.50;99.90;;;;;;5036392;28;20045;-47
2023/07/09 01:49:39;;;;;;;7.97;4.50;;;19.50;99.90;;;;;;5035066;28;20080;-48
2023/07/09 01:52:08;;;;;;;6.72;4.00;;;19.50;99.90;;;;;;5036658;28;20456;-45
2023/07/09 01:54:38;;;;;;;6.93;4.38;;;19.40;99.90;;;;;;5034831;28;20053;-51
2023/07/09 01:57:06;;;;;;;5.75;3.67;;;19.40;99.90;;;;;;5034694;28;20069;-51
2023/07/09 01:59:37;;;;;;;7.13;3.45;;;19.40;99.90;;;;;;5035009;28;20037;-48
2023/07/09 02:02:04;;;;;;;7.13;3.97;;;19.40;99.90;;;;;;5035484;28;20061;-46
2023/07/09 02:04:31;;;;;;;10.23;4.13;;;19.30;99.90;;;;;;5034873;28;20042;-49
2023/07/09 02:06:58;;;;;;;6.43;3.38;;;19.40;99.90;;;;;;5035912;28;20165;-48
2023/07/09 02:09:25;;;;;;;7.40;3.92;;;19.30;99.90;;;;;;5035860;28;20492;-47
2023/07/09 02:11:52;;;;;;;6.50;3.75;;;19.30;99.90;;;;;;5035190;28;20050;-47
2023/07/09 02:14:19;;;;;;;6.22;3.80;;;19.30;99.90;;;;;;5034422;28;20469;-47
2023/07/09 02:16:45;;;;;;;7.07;3.25;;;19.30;99.90;;;;;;5034892;28;20077;-47
2023/07/09 02:19:12;;;;;;;6.55;3.78;;;19.20;99.90;;;;;;5035715;28;20451;-44
2023/07/09 02:21:39;;;;;;;10.50;3.65;;;19.30;99.90;;;;;;5035838;28;20068;-50
2023/07/09 02:24:07;;;;;;;6.72;4.18;;;19.30;99.90;;;;;;5035922;28;20489;-46
2023/07/09 02:26:34;;;;;;;8.90;3.78;;;19.20;99.90;;;;;;5034531;28;20056;-45
2023/07/09 02:29:02;;;;;;;6.80;3.75;;;19.20;99.90;;;;;;5034770;28;20137;-47
2023/07/09 02:31:29;;;;;;;7.47;3.58;;;19.10;99.90;;;;;;5035462;28;20037;-50
2023/07/09 02:33:57;;;;;;;7.78;4.10;;;19.10;99.90;;;;;;5035412;28;20037;-48
2023/07/09 02:36:24;;;;;;;8.65;3.83;;;19.00;99.90;;;;;;5034058;28;20053;-45
2023/07/09 02:38:50;;;;;;;8.32;3.92;;;18.90;99.90;;;;;;5035649;28;20038;-48
2023/07/09 02:41:17;;;;;;;5.88;3.75;;;18.90;99.90;;;;;;5034563;28;20117;-48
2023/07/09 02:43:44;;;;;;;8.07;3.90;;;18.90;99.90;;;;;;5034392;28;20048;-48
2023/07/09 02:46:11;;;;;;;7.60;3.58;;;18.90;99.90;;;;;;5035679;28;20037;-46
2023/07/09 02:48:38;;;;;;;9.80;3.60;;;18.80;99.90;;;;;;5035021;28;20044;-50
2023/07/09 02:51:05;;;;;;;5.43;3.47;;;18.80;99.90;;;;;;5034109;28;20115;-45
2023/07/09 02:53:32;;;;;;;7.97;3.58;;;18.80;99.90;;;;;;5034924;28;20103;-50
2023/07/09 02:55:58;;;;;;;6.75;3.85;;;18.70;99.90;;;;;;5034973;28;20132;-46
2023/07/09 02:58:25;;;;;;;7.88;3.45;;;18.70;99.90;;;;;;5033468;28;20056;-45
2023/07/09 03:00:52;;;;;;;7.68;3.60;;;18.70;99.90;;;;;;5033766;28;20073;-48
2023/07/09 03:03:19;;;;;;;6.78;3.45;;;18.60;99.90;;;;;;5034273;28;20136;-48
2023/07/09 03:05:46;;;;;;;9.55;3.15;;;18.60;99.90;;;;;;5035578;28;20119;-47
2023/07/09 03:08:14;;;;;;;6.20;3.42;;;18.50;99.90;;;;;;5035175;28;20120;-51
2023/07/09 03:10:41;;;;;;;8.18;3.75;;;18.50;99.90;;;;;;5033759;28;20148;-46
2023/07/09 03:13:07;;;;;;;9.25;3.83;;;18.50;99.90;;;;;;5016996;28;20128;-50
2023/07/09 03:15:34;;;;;;;8.20;3.70;;;18.40;99.90;;;;;;5033635;28;20212;-46
2023/07/09 03:18:01;;;;;;;6.75;3.80;;;18.40;99.90;;;;;;5034559;28;20084;-48
2023/07/09 03:20:28;;;;;;;11.50;3.90;;;18.40;99.90;;;;;;5033536;28;20037;-50
2023/07/09 03:22:55;;;;;;;5.57;3.22;;;18.40;99.90;;;;;;5034589;28;20041;-50
2023/07/09 03:25:22;;;;;;;7.43;3.40;;;18.40;99.90;;;;;;5033197;28;20049;-47
2023/07/09 03:27:48;;;;;;;7.22;3.50;;;18.40;99.90;;;;;;5034841;28;20457;-51
2023/07/09 03:30:15;;;;;;;8.05;3.63;;;18.30;99.90;;;;;;5034775;28;20046;-48
2023/07/09 03:32:42;;;;;;;10.20;4.03;;;18.30;99.90;;;;;;5033021;28;20046;-46
2023/07/09 03:35:09;;;;;;;7.68;3.40;;;18.30;99.90;;;;;;5033246;28;20442;-45
2023/07/09 03:37:37;;;;;;;10.05;3.50;;;18.30;99.90;;;;;;5032855;28;20065;-50
2023/07/09 03:40:04;;;;;;;7.07;3.80;;;18.30;99.90;;;;;;5034597;28;20042;-47
2023/07/09 03:42:31;;;;;;;8.75;3.65;;;18.30;99.90;;;;;;5034487;28;20068;-45
2023/07/09 03:44:58;;;;;;;5.93;3.40;;;18.30;99.90;;;;;;5033872;28;20040;-47
2023/07/09 03:47:24;;;;;;;8.02;3.40;;;18.30;99.90;;;;;;5032400;28;20369;-44
2023/07/09 03:49:51;;;;;;;7.57;3.50;;;18.30;99.90;;;;;;5033868;28;20044;-44
2023/07/09 03:52:18;;;;;;;7.13;3.35;;;18.30;99.90;;;;;;5033240;28;20447;-46
2023/07/09 03:54:45;;;;;;;7.45;3.30;;;18.30;99.90;;;;;;5033738;28;20047;-46
2023/07/09 03:57:12;;;;;;;6.35;3.00;;;18.20;99.90;;;;;;5034258;28;20511;-45
2023/07/09 03:59:39;;;;;;;7.88;3.53;;;18.30;99.90;;;;;;5032710;28;20044;-46
2023/07/09 04:02:06;;;;;;;10.18;3.72;;;18.30;99.90;;;;;;5034032;28;20042;-45
2023/07/09 04:04:33;;;;;;;7.85;3.10;;;18.30;99.90;;;;;;5033990;28;20137;-49
2023/07/09 04:07:00;;;;;;;7.68;3.15;;;18.30;99.90;;;;;;5034026;28;20055;-44
2023/07/09 04:09:27;;;;;;;7.22;3.10;;;18.30;99.90;;;;;;5033675;28;20052;-43
2023/07/09 04:11:54;;;;;;;6.03;3.47;;;18.30;99.90;;;;;;5033720;28;20045;-51
2023/07/09 04:14:20;;;;;;;8.40;3.20;;;18.30;99.90;;;;;;5033546;28;20040;-43
2023/07/09 04:16:47;;;;;;;8.18;3.15;;;18.30;99.90;;;;;;5033902;28;20042;-44
2023/07/09 04:19:14;;;;;;;9.35;3.28;;;18.30;99.90;;;;;;5033442;28;20037;-43
2023/07/09 04:21:42;;;;;;;6.95;3.33;;;18.30;99.90;;;;;;5033702;28;20388;-47
2023/07/09 04:24:08;;;;;;;7.85;3.70;;;18.30;99.90;;;;;;5033369;28;20076;-47
2023/07/09 04:26:38;;;;;;;7.60;3.20;;;18.20;99.90;;;;;;5033673;28;20420;-51
2023/07/09 04:29:06;;;;;;;8.32;3.50;;;18.20;99.90;;;;;;5033650;28;20041;-49
2023/07/09 04:31:32;;;;;;;8.75;3.28;;;18.30;99.90;;;;;;5033403;28;20037;-50
2023/07/09 04:33:59;;;;;;;7.70;3.60;;;18.30;99.90;;;;;;5033436;28;20045;-47
2023/07/09 04:36:26;;;;;;;8.60;3.47;;;18.30;99.90;;;;;;5034035;28;20046;-47
2023/07/09 04:38:53;;;;;;;6.10;3.05;;;18.30;99.90;;;;;;5033288;28;20377;-48
2023/07/09 04:41:20;;;;;;;11.60;3.22;;;18.30;99.90;;;;;;5032638;28;20481;-48
2023/07/09 04:43:46;;;;;;;12.18;3.75;;;18.40;99.90;;;;;;5032026;28;20378;-48
2023/07/09 04:46:13;;;;;;;9.85;3.13;;;18.40;99.90;;;;;;5034008;28;20470;-46
2023/07/09 04:48:40;;;;;;;10.55;3.25;;;18.40;99.90;;;;;;5033998;28;20041;-47
2023/07/09 04:51:07;;;;;;;9.15;3.10;;;18.40;99.90;;;;;;5033849;28;20041;-47
2023/07/09 04:53:34;;;;;;;7.57;3.10;;;18.40;99.90;;;;;;5033111;28;20443;-45
2023/07/09 04:56:02;;;;;;;10.57;3.47;;;18.40;99.90;;;;;;5033825;28;20041;-46
2023/07/09 04:58:29;;;;;;;11.55;3.72;;;18.40;99.90;;;;;;5033599;28;20083;-47
2023/07/09 05:00:56;;;;;;;6.82;3.00;;;18.30;99.90;;;;;;5033599;28;20041;-46
2023/07/09 05:03:23;;;;;;;9.60;3.60;;;18.40;99.90;;;;;;5033709;28;20033;-51
2023/07/09 05:05:50;;;;;;;8.27;3.30;;;18.40;99.90;;;;;;5037129;28;20040;-51
2023/07/09 05:08:17;;;;;;;9.15;3.45;;;18.40;99.90;;;;;;5037145;28;20049;-48
2023/07/09 05:10:44;;;;;;;9.98;3.47;;;18.40;99.90;;;;;;5037282;28;20067;-49
2023/07/09 05:13:11;;;;;;;9.52;3.42;;;18.40;99.90;;;;;;5036849;28;20048;-52
2023/07/09 05:15:38;;;;;;;8.48;3.42;;;18.40;99.90;;;;;;5037282;28;20048;-51
2023/07/09 05:18:04;;;;;;;7.88;2.80;;;18.40;99.90;;;;;;5037362;28;20076;-49
2023/07/09 05:20:31;;;;;;;9.68;3.90;;;18.40;99.90;;;;;;5036945;28;20033;-49
2023/07/09 05:22:58;;;;;;;9.35;3.13;;;18.40;99.90;;;;;;5036633;28;20488;-48
2023/07/09 05:25:25;;;;;;;8.65;3.35;;;18.40;99.90;;;;;;5036925;28;20045;-45
2023/07/09 05:27:52;;;;;;;6.35;2.85;;;18.50;99.90;;;;;;5036788;28;20046;-45
2023/07/09 05:30:19;;;;;;;6.50;2.97;;;18.50;99.90;;;;;;5037155;28;20079;-46
2023/07/09 05:32:45;;;;;;;7.40;2.58;;;18.60;99.90;;;;;;5035346;28;20099;-44
2023/07/09 05:35:12;;;;;;;5.47;2.90;;;18.60;99.90;;;;;;5036625;28;20052;-46
2023/07/09 05:37:39;;;;;;;10.35;3.35;;;18.60;99.90;;;;;;5036780;28;20041;-46
2023/07/09 05:40:06;;;;;;;8.43;3.15;;;18.60;99.90;;;;;;5035413;28;20048;-50
2023/07/09 05:42:32;;;;;;;6.88;2.85;;;18.70;99.90;;;;;;5036244;28;20034;-50
2023/07/09 05:44:59;;;;;;;8.85;2.72;;;18.80;99.90;;;;;;5036353;28;20048;-49
2023/07/09 05:47:26;;;;;;;10.52;2.80;;;18.80;99.90;;;;;;5036278;28;20042;-48
2023/07/09 05:49:53;;;;;;;8.93;2.90;;;18.80;99.90;;;;;;5036640;28;20049;-46
2023/07/09 05:52:19;;;;;;;7.68;2.80;;;18.90;99.90;;;;;;5036360;28;20037;-47
2023/07/09 05:54:46;;;;;;;7.75;2.78;;;18.90;99.90;;;;;;5036421;28;20120;-49
2023/07/09 05:57:13;;;;;;;8.88;3.10;;;18.90;99.90;;;;;;5036504;28;20041;-52
2023/07/09 05:59:40;;;;;;;7.90;2.85;;;18.90;99.90;;;;;;5036617;28;20048;-50
2023/07/09 06:02:06;;;;;;;8.10;2.25;;;18.90;99.90;;;;;;5036590;28;20033;-46
2023/07/09 06:04:34;;;;;;;10.57;2.80;;;19.00;99.90;;;;;;5036049;28;20477;-44
2023/07/09 06:07:03;;;;;;;12.27;3.25;;;19.00;99.90;;;;;;5036705;28;20446;-48
2023/07/09 06:09:30;;;;;;;10.00;2.83;;;18.90;99.90;;;;;;5036249;28;20049;-49
2023/07/09 06:11:57;;;;;;;8.15;3.10;;;18.90;99.90;;;;;;5035896;28;20038;-50
2023/07/09 06:14:24;;;;;;;8.88;2.90;;;18.90;99.90;;;;;;5036540;28;20045;-46
2023/07/09 06:16:50;;;;;;;11.88;2.90;;;18.90;99.90;;;;;;5034680;28;20049;-49
2023/07/09 06:19:17;;;;;;;10.52;3.15;;;18.70;99.90;;;;;;5035802;28;20041;-46
2023/07/09 06:21:44;;;;;;;9.95;2.50;;;18.70;99.90;;;;;;5035808;28;20046;-46
2023/07/09 06:24:11;;;;;;;8.75;2.85;;;18.70;99.90;;;;;;5036095;28;20033;-50
2023/07/09 06:26:38;;;;;;;11.93;3.20;;;18.70;99.90;;;;;;5036217;28;20049;-48
2023/07/09 06:29:04;;;;;;;7.50;3.00;;;18.70;99.90;;;;;;5036306;28;20041;-47
2023/07/09 06:31:31;;;;;;;7.20;2.58;;;18.70;99.90;;;;;;5035915;28;20038;-50
2023/07/09 06:34:02;;;;;;;9.43;2.90;;;18.70;99.90;;;;;;5035623;28;20496;-47
2023/07/09 06:36:28;;;;;;;8.90;2.60;;;18.80;99.90;;;;;;5034981;28;20473;-44
2023/07/09 06:38:55;;;;;;;8.45;3.03;;;18.80;99.90;;;;;;5035794;28;20393;-51
2023/07/09 06:41:23;;;;;;;10.02;2.60;;;18.80;99.90;;;;;;5034215;28;20065;-51
2023/07/09 06:43:50;;;;;;;11.43;2.70;;;18.90;99.90;;;;;;5035104;28;20473;-46
2023/07/09 06:46:17;;;;;;;9.98;2.90;;;19.00;99.90;;;;;;5035314;28;20040;-50
2023/07/09 06:48:43;;;;;;;10.43;3.17;;;19.10;99.90;;;;;;5034229;28;20041;-49
2023/07/09 06:51:10;;;;;;;8.57;3.22;;;19.20;99.90;;;;;;5035297;28;20037;-49
2023/07/09 06:53:37;;;;;;;8.68;3.10;;;19.20;99.90;;;;;;5035156;28;20136;-47
2023/07/09 06:56:04;;;;;;;9.48;2.95;;;19.30;99.90;;;;;;5034950;28;20049;-46
2023/07/09 06:58:31;;;;;;;11.38;2.92;;;19.40;99.90;;;;;;5034633;28;20049;-44
2023/07/09 07:00:58;;;;;;;8.57;3.33;;;19.50;99.90;;;;;;5035224;28;20065;-45
2023/07/09 07:03:25;;;;;;;7.75;2.90;;;19.50;99.90;;;;;;5033715;28;20041;-53
2023/07/09 07:05:53;;;;;;;10.32;2.90;;;19.60;99.90;;;;;;5033157;28;20433;-49
2023/07/09 07:08:20;;;;;;;9.48;3.05;;;19.60;99.90;;;;;;5034729;28;20037;-45
2023/07/09 07:10:47;;;;;;;13.68;2.80;;;19.60;99.90;;;;;;5034866;28;20045;-53
2023/07/09 07:13:14;;;;;;;10.27;2.45;;;19.70;99.90;;;;;;5034770;28;20460;-46
2023/07/09 07:15:40;;;;;;;8.68;2.70;;;19.60;99.90;;;;;;5034815;28;20039;-45
2023/07/09 07:18:07;;;;;;;10.48;2.67;;;19.70;99.90;;;;;;5034779;28;20045;-47
2023/07/09 07:20:34;;;;;;;8.48;2.55;;;19.70;99.90;;;;;;5034954;28;20068;-50
2023/07/09 07:23:01;;;;;;;9.57;2.70;;;19.70;99.90;;;;;;5034901;28;20045;-47
2023/07/09 07:25:28;;;;;;;9.48;2.47;;;19.80;99.90;;;;;;5035031;28;20042;-47
2023/07/09 07:27:54;;;;;;;8.98;2.40;;;19.80;99.90;;;;;;5033190;28;20055;-51
2023/07/09 07:30:21;;;;;;;9.40;2.53;;;19.90;99.90;;;;;;5034604;28;20053;-48
2023/07/09 07:32:51;;;;;;;10.75;2.55;;;19.80;99.90;;;;;;5034404;28;20107;-49
2023/07/09 07:35:19;;;;;;;8.60;2.35;;;19.90;99.90;;;;;;5034435;28;20034;-44
2023/07/09 07:37:46;;;;;;;8.27;2.53;;;19.90;99.90;;;;;;5034891;28;20056;-50
2023/07/09 07:40:13;;;;;;;7.90;2.10;;;20.00;99.90;;;;;;5034260;28;20068;-45
2023/07/09 07:42:40;;;;;;;10.30;2.38;;;20.10;99.90;;;;;;5034241;28;20040;-44
2023/07/09 07:45:07;;;;;;;8.35;2.40;;;20.30;99.90;;;;;;5034279;28;20041;-47
2023/07/09 07:47:34;;;;;;;8.65;2.65;;;20.40;99.90;;;;;;5034386;28;20069;-47
2023/07/09 07:50:04;;;;;;;7.30;1.90;;;20.50;99.90;;;;;;5034074;28;20546;-46
2023/07/09 07:52:31;;;;;;;9.43;2.67;;;20.50;99.90;;;;;;5033747;28;20069;-46
2023/07/09 07:54:57;;;;;;;6.40;2.20;;;20.60;99.90;;;;;;5034311;28;20124;-46
2023/07/09 07:57:24;;;;;;;7.38;2.40;;;20.60;99.90;;;;;;5033939;28;20137;-45
2023/07/09 07:59:51;;;;;;;6.93;2.28;;;20.60;99.90;;;;;;5034278;28;20132;-48
2023/07/09 08:02:18;;;;;;;8.25;2.22;;;20.70;99.90;;;;;;5034107;28;20033;-44
2023/07/09 08:04:45;;;;;;;5.63;1.95;;;20.80;99.80;;;;;;5033954;28;20033;-44
2023/07/09 08:07:11;;;;;;;7.03;2.03;;;21.00;99.00;;;;;;5034053;28;20037;-47
2023/07/09 08:09:39;;;;;;;5.72;2.05;;;21.10;98.80;;;;;;5033565;28;20052;-50
2023/07/09 08:12:09;;;;;;;7.28;2.17;;;21.20;99.30;;;;;;5029308;28;20048;-46
2023/07/09 08:14:41;;;;;;;;;;;21.30;98.40;;;;;;5032155;28;20420;-46
2023/07/09 08:17:08;;;;;;;4.65;1.65;;;21.40;96.50;;;;;;5033463;28;19921;-47
2023/07/09 08:19:35;;;;;;;8.48;2.60;;;21.50;96.70;;;;;;5032522;28;20116;-50
2023/07/09 08:22:01;;;;;;;7.07;1.95;;;21.60;95.00;;;;;;5033084;28;20455;-53
2023/07/09 08:24:28;;;;;;;5.25;1.88;;;21.70;96.00;;;;;;5033364;28;20041;-51
2023/07/09 08:27:00;;;;;;;5.05;1.70;;;21.70;94.30;;;;;;5032296;28;20048;-48
2023/07/09 08:29:26;;;;;;;6.22;1.60;;;21.70;94.60;;;;;;5033315;28;20092;-46
2023/07/09 08:31:53;;;;;;;4.68;1.63;;;21.70;94.90;;;;;;5032943;28;20046;-45
2023/07/09 08:34:20;;;;;;;7.03;1.60;;;21.60;95.20;;;;;;5032994;28;20519;-44
2023/07/09 08:36:47;;;;;;;6.18;1.98;;;21.50;95.40;;;;;;5033344;28;20041;-48
2023/07/09 08:39:15;;;;;;;8.07;1.65;;;21.50;95.20;;;;;;5034181;28;20079;-50
2023/07/09 08:41:41;;;;;;;8.75;1.73;;;21.40;95.50;;;;;;5037374;28;20072;-46
2023/07/09 08:44:08;;;;;;;4.63;1.40;;;21.30;96.20;;;;;;5037460;28;20055;-46
2023/07/09 08:46:35;;;;;;;6.25;1.75;;;21.20;94.60;;;;;;5036706;28;20053;-46
2023/07/09 08:49:02;;;;;;;4.35;1.50;;;21.10;95.00;;;;;;5037469;28;20095;-46
2023/07/09 08:51:28;;;;;;;7.28;2.10;;;21.10;96.20;;;;;;5036876;28;20050;-47
2023/07/09 08:53:55;;;;;;;7.38;2.58;;;21.10;96.60;;;;;;5037391;28;20504;-46
2023/07/09 08:56:22;;;;;;;6.57;2.20;;;21.20;96.70;;;;;;5036600;28;20053;-47
2023/07/09 08:58:49;;;;;;;7.13;2.20;;;21.20;95.50;;;;;;5036862;28;20056;-44
2023/07/09 09:01:16;;;;;;;5.63;2.13;;;21.30;96.80;;;;;;5037043;28;20116;-45
2023/07/09 09:03:42;;;;;;;7.47;1.95;;;21.30;96.70;;;;;;5036842;28;20414;-45
2023/07/09 09:06:09;;;;;;;9.95;3.50;;;21.40;96.90;;;;;;5036979;28;20425;-47
2023/07/09 09:08:36;;;;;;;7.20;3.63;;;21.50;96.90;;;;;;5036676;28;20396;-48
2023/07/09 09:11:03;;;;;;;9.00;3.80;;;21.60;96.60;;;;;;5036565;28;20511;-43
2023/07/09 09:13:30;;;;;;;13.25;3.70;;;21.60;96.70;;;;;;5036153;28;20116;-45
2023/07/09 09:15:57;;;;;;;8.10;3.28;;;21.70;95.70;;;;;;5036525;28;20046;-50
2023/07/09 09:18:25;;;;;;;8.23;2.60;;;21.70;95.10;;;;;;5034777;28;20133;-49
2023/07/09 09:20:52;;;;;;;5.18;1.63;;;21.80;95.40;;;;;;5036715;28;20120;-47
2023/07/09 09:23:19;;;;;;;6.05;1.70;;;21.80;94.20;;;;;;5036589;28;20366;-49
2023/07/09 09:25:46;;;;;;;6.47;2.08;;;21.80;94.40;;;;;;5036057;28;20038;-48
2023/07/09 09:28:15;;;;;;;6.78;2.28;;;21.80;94.10;;;;;;5031353;28;20029;-49
2023/07/09 09:30:42;;;;;;;5.60;2.15;;;21.70;94.50;;;;;;5035524;28;20064;-48
2023/07/09 09:33:08;;;;;;;8.80;3.80;;;21.80;94.40;;;;;;5028485;28;20060;-47
2023/07/09 09:35:38;;;;;;;11.90;4.03;;;21.80;94.30;;;;;;5034684;28;20049;-47
2023/07/09 09:38:05;;;;;;;9.52;4.28;;;21.90;95.00;;;;;;5035382;28;20042;-47
2023/07/09 09:40:32;;;;;;;8.05;3.63;;;22.00;95.30;;;;;;5035728;28;20048;-47
2023/07/09 09:43:00;;;;;;;6.32;2.38;;;22.00;95.20;;;;;;5035450;28;20099;-50
2023/07/09 09:45:27;;;;;;;6.90;2.20;;;22.20;95.20;;;;;;5035738;28;20048;-53
2023/07/09 09:47:54;;;;;;;4.13;1.73;;;22.30;95.30;;;;;;5035067;28;20065;-47
2023/07/09 09:50:21;;;;;;;6.63;1.95;;;22.40;95.10;;;;;;5035388;28;20053;-50
2023/07/09 09:52:47;;;;;;;4.65;1.55;;;22.50;94.60;;;;;;5037037;28;20084;-47
2023/07/09 09:55:14;;;;;;;7.68;1.70;;;22.60;94.50;;;;;;5035659;28;20079;-50
2023/07/09 09:57:41;;;;;;;4.78;1.75;;;22.60;94.40;;;;;;5035302;28;20057;-47
2023/07/09 10:00:08;;;;;;;4.93;1.60;;;22.70;94.10;;;;;;5034440;28;20123;-50
2023/07/09 10:02:35;;;;;;;7.45;2.05;;;22.80;93.70;;;;;;5035398;28;20103;-50
2023/07/09 10:05:03;;;;;;;5.72;1.60;;;23.00;93.90;;;;;;5034782;28;20133;-48
2023/07/09 10:07:29;;;;;;;5.85;1.60;;;23.10;94.00;;;;;;5035357;28;20042;-51
2023/07/09 10:09:58;;;;;;;5.28;1.55;;;23.10;92.80;;;;;;5030837;28;20489;-52
2023/07/09 10:12:25;;;;;;;5.68;1.70;;;23.20;92.60;;;;;;5026679;28;20046;-51
2023/07/09 10:14:51;;;;;;;5.68;1.65;;;23.40;92.30;;;;;;5034761;28;20084;-49
2023/07/09 10:17:22;;;;;;;5.07;1.95;;;23.50;92.00;;;;;;5035283;28;20122;-46
2023/07/09 10:19:49;;;;;;;6.28;1.65;;;23.50;90.70;;;;;;5033390;28;20538;-47
2023/07/09 10:22:16;;;;;;;4.85;1.67;;;23.60;91.50;;;;;;5034862;28;20034;-47
2023/07/09 10:24:43;;;;;;;6.75;1.60;;;23.60;91.20;;;;;;5029176;28;20041;-46
2023/07/09 10:27:09;;;;;;;7.85;2.00;;;23.60;91.40;;;;;;5032079;28;20069;-50
2023/07/09 10:29:36;;;;;;;5.40;1.63;;;23.80;91.60;;;;;;5029931;28;20053;-47
2023/07/09 10:32:03;;;;;;;4.95;1.55;;;23.90;91.20;;;;;;5034425;28;20372;-51
2023/07/09 10:34:30;;;;;;;4.60;1.60;;;23.90;90.90;;;;;;5034792;28;20480;-50
2023/07/09 10:36:57;;;;;;;5.10;1.70;;;23.90;90.20;;;;;;5034809;28;20056;-47
2023/07/09 10:39:23;;;;;;;9.13;2.10;;;23.90;90.80;;;;;;5034195;28;20044;-50
2023/07/09 10:41:50;;;;;;;7.13;1.60;;;24.10;90.70;;;;;;5034697;28;20065;-49
2023/07/09 10:44:17;;;;;;;5.00;1.63;;;24.20;90.20;;;;;;5034845;28;20049;-47
2023/07/09 10:46:44;;;;;;;4.95;1.80;;;24.30;90.10;;;;;;5019718;28;20511;-48
2023/07/09 10:49:11;;;;;;;5.60;2.00;;;24.40;87.90;;;;;;5034385;28;20037;-47
2023/07/09 10:51:37;;;;;;;7.28;1.60;;;24.50;88.70;;;;;;5034416;28;20041;-50
2023/07/09 10:54:04;;;;;;;5.75;1.80;;;24.50;89.00;;;;;;5028695;28;20046;-49
2023/07/09 10:56:31;;;;;;;5.20;1.65;;;24.50;88.20;;;;;;5029696;28;20045;-47
2023/07/09 10:58:58;;;;;;;3.63;1.60;;;24.50;87.80;;;;;;5032485;28;20060;-45
2023/07/09 11:01:25;;;;;;;5.05;1.60;;;24.50;87.40;;;;;;5018750;28;20061;-44
2023/07/09 11:03:52;;;;;;;3.75;1.58;;;24.50;88.20;;;;;;5033900;28;20033;-46
2023/07/09 11:06:20;;;;;;;6.05;1.80;;;24.50;87.60;;;;;;5032950;28;20095;-52
2023/07/09 11:08:47;;;;;;;5.35;1.45;;;24.50;86.90;;;;;;5033820;28;20049;-49
2023/07/09 11:11:13;;;;;;;9.40;1.98;;;24.50;87.70;;;;;;5034510;28;20049;-52
2023/07/09 11:13:40;;;;;;;7.57;2.13;;;24.40;88.60;;;;;;5033752;28;20493;-51
2023/07/09 11:16:18;;;;;;;6.63;2.00;;;24.40;88.60;;;;;;5034505;28;20048;-47
2023/07/09 11:18:45;;;;;;;6.45;1.95;;;24.40;90.00;;;;;;5027765;28;20069;-45
2023/07/09 11:21:11;;;;;;;6.70;1.77;;;24.50;89.20;;;;;;5034544;28;20477;-46
2023/07/09 11:23:38;;;;;;;5.43;1.70;;;24.50;89.20;;;;;;5034134;28;20132;-44
2023/07/09 11:26:05;;;;;;;4.85;1.75;;;24.60;88.50;;;;;;5033356;28;20132;-45
2023/07/09 11:28:32;;;;;;;7.85;2.30;;;24.60;88.50;;;;;;5034088;28;20056;-48
2023/07/09 11:30:59;;;;;;;6.00;2.03;;;24.60;89.60;;;;;;5034106;28;20073;-47
2023/07/09 11:33:25;;;;;;;5.38;1.90;;;24.60;89.20;;;;;;5033504;28;20487;-48
2023/07/09 11:35:53;;;;;;;5.35;1.90;;;24.60;88.00;;;;;;5033856;28;20049;-44
2023/07/09 11:38:20;;;;;;;6.72;1.60;;;24.60;90.00;;;;;;5026853;28;20076;-47
2023/07/09 11:40:47;;;;;;;6.70;1.70;;;24.80;89.50;;;;;;5032584;28;20049;-48
2023/07/09 11:43:13;;;;;;;8.23;2.00;;;24.70;89.10;;;;;;5033667;28;20049;-45
2023/07/09 11:45:42;;;;;;;6.20;2.10;;;24.60;90.10;;;;;;5032073;28;20456;-47
2023/07/09 11:48:09;;;;;;;4.30;1.73;;;24.60;89.60;;;;;;5033088;28;20045;-47
2023/07/09 11:50:36;;;;;;;6.95;2.00;;;24.60;90.20;;;;;;5033458;28;20498;-47
2023/07/09 11:53:03;;;;;;;9.38;2.03;;;24.80;90.20;;;;;;5033178;28;20052;-44
2023/07/09 11:55:30;;;;;;;6.70;1.90;;;24.70;90.40;;;;;;5033608;28;20042;-45
2023/07/09 11:57:56;;;;;;;7.43;2.00;;;24.70;90.10;;;;;;5033467;28;20056;-45
2023/07/09 12:00:23;;;;;;;5.18;2.28;;;24.80;90.40;;;;;;5032749;28;20137;-46
2023/07/09 12:02:51;;;;;;;7.45;2.25;;;24.90;90.50;;;;;;5032170;28;20469;-45
2023/07/09 12:05:17;;;;;;;9.40;2.03;;;24.90;90.00;;;;;;5032691;28;20034;-49
2023/07/09 12:07:44;;;;;;;6.65;2.10;;;24.90;90.30;;;;;;5032318;28;20044;-50
2023/07/09 12:10:11;;;;;;;6.40;1.85;;;25.10;90.40;;;;;;5030923;28;20033;-50
2023/07/09 12:12:38;;;;;;;6.45;2.05;;;25.20;90.50;;;;;;5032227;28;20033;-52
2023/07/09 12:15:04;;;;;;;10.15;2.28;;;25.20;90.20;;;;;;5031290;28;20128;-51
2023/07/09 12:17:33;;;;;;;8.43;2.05;;;25.30;90.10;;;;;;5033328;28;20045;-49
2023/07/09 12:20:00;;;;;;;5.18;1.83;;;25.30;89.60;;;;;;5027413;28;20083;-46
2023/07/09 12:22:27;;;;;;;7.68;2.10;;;25.30;89.20;;;;;;5033305;28;20041;-49
2023/07/09 12:24:55;;;;;;;6.60;2.00;;;25.30;89.80;;;;;;5032250;28;20127;-48
2023/07/09 12:27:22;;;;;;;6.35;1.90;;;25.30;90.00;;;;;;5033245;28;20112;-49
2023/07/09 12:29:49;;;;;;;7.45;2.25;;;25.30;89.50;;;;;;5032115;28;20052;-46
2023/07/09 12:32:16;;;;;;;7.45;1.90;;;25.20;89.70;;;;;;5033311;28;20049;-46
2023/07/09 12:34:43;;;;;;;7.32;1.80;;;25.30;90.20;;;;;;5033236;28;20100;-47
2023/07/09 12:37:09;;;;;;;6.60;2.13;;;25.40;90.30;;;;;;5026757;28;20045;-49
2023/07/09 12:39:37;;;;;;;9.45;2.35;;;25.50;90.00;;;;;;5026387;28;20059;-45
2023/07/09 12:42:04;;;;;;;6.30;2.20;;;25.50;89.90;;;;;;5032931;28;20052;-45
2023/07/09 12:44:31;;;;;;;7.18;2.33;;;25.50;90.20;;;;;;5032915;28;20052;-45